createdAt,value
2023-03-10T00:01:21.176Z,11.30
2023-03-10T00:03:51.103Z,13.80
2023-03-10T00:06:23.480Z,10.85
2023-03-10T00:08:51.026Z,14.27
2023-03-10T00:11:21.215Z,14.60
2023-03-10T00:13:49.080Z,11.30
2023-03-10T00:16:26.122Z,12.88
2023-03-10T00:18:58.841Z,10.90
2023-03-10T00:21:30.281Z,12.15
2023-03-10T00:23:58.322Z,12.65
2023-03-10T00:26:29.177Z,15.48
2023-03-10T00:28:59.180Z,12.57
2023-03-10T00:31:28.156Z,15.40
2023-03-10T00:33:56.812Z,14.15
2023-03-10T00:36:26.623Z,14.23
2023-03-10T00:38:55.497Z,14.10
2023-03-10T00:41:25.204Z,12.32
2023-03-10T00:43:52.702Z,13.32
2023-03-10T00:46:20.540Z,16.17
2023-03-10T00:48:48.009Z,17.40
2023-03-10T00:51:15.863Z,16.10
2023-03-10T00:53:43.416Z,15.55
2023-03-10T00:56:19.719Z,15.10
2023-03-10T00:58:50.193Z,13.93
2023-03-10T01:01:24.176Z,15.40
2023-03-10T01:03:55.690Z,14.98
2023-03-10T01:06:23.477Z,15.95
2023-03-10T01:08:50.877Z,18.27
2023-03-10T01:11:19.802Z,13.38
2023-03-10T01:13:50.142Z,15.68
2023-03-10T01:16:17.412Z,15.15
2023-03-10T01:18:45.119Z,14.82
2023-03-10T01:21:27.716Z,13.88
2023-03-10T01:23:55.407Z,13.85
2023-03-10T01:26:22.453Z,13.25
2023-03-10T01:28:50.285Z,13.50
2023-03-10T01:31:20.540Z,13.90
2023-03-10T01:33:48.009Z,13.27
2023-03-10T01:36:20.626Z,12.77
2023-03-10T01:38:48.305Z,13.65
2023-03-10T01:41:16.896Z,12.93
2023-03-10T01:43:50.312Z,17.80
2023-03-10T01:46:46.829Z,13.73
2023-03-10T01:49:28.031Z,13.30
2023-03-10T01:52:03.698Z,16.70
2023-03-10T01:54:38.655Z,12.55
2023-03-10T01:57:05.944Z,14.63
2023-03-10T01:59:34.488Z,12.70
2023-03-10T02:02:02.514Z,13.73
2023-03-10T02:04:42.836Z,12.75
2023-03-10T02:07:11.831Z,10.07
2023-03-10T02:09:43.651Z,11.75
2023-03-10T02:12:12.652Z,11.38
2023-03-10T02:14:45.185Z,11.38
2023-03-10T02:17:14.857Z,11.10
2023-03-10T02:20:10.996Z,9.85
2023-03-10T02:22:39.798Z,8.35
2023-03-10T02:25:28.771Z,12.27
2023-03-10T02:27:58.504Z,10.48
2023-03-10T02:30:34.502Z,9.38
2023-03-10T02:33:32.550Z,10.50
2023-03-10T02:36:26.522Z,9.43
2023-03-10T02:38:56.091Z,9.45
2023-03-10T02:41:35.005Z,11.95
2023-03-10T02:44:06.165Z,10.75
2023-03-10T02:46:36.493Z,10.60
2023-03-10T02:49:05.417Z,8.80
2023-03-10T02:51:44.763Z,9.55
2023-03-10T02:54:12.448Z,8.77
2023-03-10T02:56:42.286Z,9.40
2023-03-10T02:59:10.279Z,7.28
2023-03-10T03:01:37.857Z,15.95
2023-03-10T03:04:07.341Z,8.32
2023-03-10T03:06:34.738Z,9.57
2023-03-10T03:09:02.087Z,11.55
2023-03-10T03:11:31.792Z,8.65
2023-03-10T03:14:01.320Z,9.95
2023-03-10T03:16:28.718Z,7.55
2023-03-10T03:18:58.000Z,9.98
2023-03-10T03:21:25.348Z,9.35
2023-03-10T03:23:52.387Z,8.00
2023-03-10T03:26:24.866Z,10.02
2023-03-10T03:28:51.879Z,11.73
2023-03-10T03:31:25.713Z,13.15
2023-03-10T03:33:52.785Z,9.85
2023-03-10T03:36:20.179Z,9.80
2023-03-10T03:38:47.198Z,10.00
2023-03-10T03:41:14.601Z,10.15
2023-03-10T03:43:43.882Z,11.68
2023-03-10T03:46:11.317Z,11.85
2023-03-10T03:48:38.458Z,10.77
2023-03-10T03:51:06.016Z,10.50
2023-03-10T03:53:37.705Z,12.75
2023-03-10T03:56:07.795Z,9.95
2023-03-10T03:58:37.187Z,9.38
2023-03-10T04:03:40.101Z,11.32
2023-03-10T04:06:09.945Z,10.38
2023-03-10T04:08:37.080Z,5.82
2023-03-10T04:11:04.614Z,10.38
2023-03-10T04:13:31.693Z,8.77
2023-03-10T04:15:59.666Z,8.60
2023-03-10T04:18:27.363Z,8.25
2023-03-10T04:20:54.732Z,11.23
2023-03-10T04:23:21.829Z,10.93
2023-03-10T04:25:49.139Z,9.80
2023-03-10T04:28:16.216Z,10.10
2023-03-10T04:30:46.173Z,10.18
2023-03-10T04:33:13.369Z,12.15
2023-03-10T04:35:45.152Z,9.95
2023-03-10T04:38:14.818Z,12.95
2023-03-10T04:40:42.222Z,7.05
2023-03-10T04:43:09.249Z,9.90
2023-03-10T04:45:36.950Z,9.98
2023-03-10T04:48:04.182Z,6.53
2023-03-10T04:50:31.539Z,10.05
2023-03-10T04:53:01.053Z,9.10
2023-03-10T04:55:28.433Z,5.68
2023-03-10T04:57:55.673Z,7.95
2023-03-10T05:00:23.208Z,8.40
2023-03-10T05:02:53.456Z,8.10
2023-03-10T05:05:20.875Z,5.15
2023-03-10T05:07:50.415Z,5.43
2023-03-10T05:10:17.924Z,7.85
2023-03-10T05:12:45.072Z,8.00
2023-03-10T05:15:12.693Z,9.80
2023-03-10T05:17:39.690Z,7.95
2023-03-10T05:20:07.703Z,6.70
2023-03-10T05:22:34.908Z,9.75
2023-03-10T05:25:02.406Z,8.60
2023-03-10T05:27:29.429Z,10.90
2023-03-10T05:30:01.842Z,7.15
2023-03-10T05:32:33.700Z,9.05
2023-03-10T05:35:01.293Z,7.50
2023-03-10T05:37:28.445Z,12.07
2023-03-10T05:39:56.046Z,10.98
2023-03-10T05:42:23.076Z,9.55
2023-03-10T05:44:50.403Z,8.23
2023-03-10T05:47:17.450Z,6.50
2023-03-10T05:49:45.210Z,8.55
2023-03-10T05:52:12.300Z,8.30
2023-03-10T05:54:39.686Z,9.68
2023-03-10T05:57:06.745Z,11.98
2023-03-10T05:59:34.121Z,6.15
2023-03-10T06:02:01.160Z,9.10
2023-03-10T06:04:30.901Z,7.72
2023-03-10T06:07:01.334Z,8.00
2023-03-10T06:09:32.416Z,10.20
2023-03-10T06:12:02.475Z,5.30
2023-03-10T06:14:29.834Z,6.10
2023-03-10T06:16:59.505Z,5.72
2023-03-10T06:19:29.440Z,6.60
2023-03-10T06:21:58.739Z,5.85
2023-03-10T06:24:28.428Z,8.38
2023-03-10T06:26:58.012Z,5.97
2023-03-10T06:29:25.560Z,7.80
2023-03-10T06:31:58.428Z,8.27
2023-03-10T06:34:26.256Z,6.20
2023-03-10T06:36:57.770Z,7.20
2023-03-10T06:39:27.697Z,9.27
2023-03-10T06:41:57.232Z,7.15
2023-03-10T06:44:24.596Z,8.57
2023-03-10T06:46:51.635Z,6.47
2023-03-10T06:49:19.017Z,6.15
2023-03-10T06:51:46.068Z,8.20
2023-03-10T06:54:13.493Z,8.35
2023-03-10T06:56:42.787Z,10.90
2023-03-10T06:59:10.181Z,8.35
2023-03-10T07:01:37.263Z,7.30
2023-03-10T07:04:04.691Z,8.48
2023-03-10T07:06:31.819Z,11.07
2023-03-10T07:09:01.372Z,7.53
2023-03-10T07:11:28.498Z,8.00
2023-03-10T07:13:58.334Z,6.25
2023-03-10T07:16:27.765Z,7.97
2023-03-10T07:18:57.605Z,7.47
2023-03-10T07:21:26.867Z,6.97
2023-03-10T07:23:54.235Z,9.02
2023-03-10T07:26:21.714Z,7.18
2023-03-10T07:28:49.039Z,10.63
2023-03-10T07:31:16.923Z,8.70
2023-03-10T07:33:44.390Z,8.80
2023-03-10T07:36:14.171Z,12.10
2023-03-10T07:38:45.024Z,9.70
2023-03-10T07:41:17.077Z,9.45
2023-03-10T07:43:47.315Z,10.70
2023-03-10T07:46:15.811Z,8.77
2023-03-10T07:48:43.591Z,11.70
2023-03-10T07:51:11.087Z,8.75
2023-03-10T07:53:38.584Z,8.25
2023-03-10T07:56:07.651Z,9.70
2023-03-10T07:58:35.705Z,9.65
2023-03-10T08:01:04.114Z,10.18
2023-03-10T08:03:33.993Z,11.27
2023-03-10T08:06:01.778Z,5.13
2023-03-10T08:08:29.226Z,9.88
2023-03-10T08:11:08.165Z,6.13
2023-03-10T08:13:39.119Z,5.57
2023-03-10T08:16:07.363Z,8.57
2023-03-10T08:18:39.252Z,11.23
2023-03-10T08:21:07.111Z,6.38
2023-03-10T08:23:38.272Z,7.30
2023-03-10T08:26:08.277Z,5.72
2023-03-10T08:28:40.200Z,4.80
2023-03-10T08:31:15.993Z,6.13
2023-03-10T08:33:46.516Z,7.78
2023-03-10T08:36:22.319Z,6.20
2023-03-10T08:38:51.882Z,5.60
2023-03-10T08:41:27.733Z,4.57
2023-03-10T08:43:56.651Z,5.07
2023-03-10T08:46:25.631Z,4.40
2023-03-10T08:48:56.536Z,4.00
2023-03-10T08:51:27.018Z,3.83
2023-03-10T08:53:55.019Z,5.45
2023-03-10T08:56:23.514Z,3.55
2023-03-10T08:58:51.198Z,6.05
2023-03-10T09:01:18.257Z,5.05
2023-03-10T09:03:46.219Z,3.80
2023-03-10T09:06:14.218Z,8.65
2023-03-10T09:08:44.202Z,4.35
2023-03-10T09:11:17.422Z,4.35
2023-03-10T09:13:46.823Z,2.80
2023-03-10T09:16:14.790Z,5.03
2023-03-10T09:18:45.426Z,3.78
2023-03-10T09:21:15.501Z,5.00
2023-03-10T09:23:48.705Z,3.75
2023-03-10T09:28:45.721Z,3.20
2023-03-10T09:31:21.966Z,4.70
2023-03-10T09:33:49.955Z,6.00
2023-03-10T09:36:17.588Z,6.00
2023-03-10T09:38:45.198Z,4.20
2023-03-10T09:42:00.680Z,5.05
2023-03-10T09:44:33.836Z,6.93
2023-03-10T09:47:10.479Z,6.25
2023-03-10T09:49:42.207Z,5.03
2023-03-10T09:52:20.325Z,4.13
2023-03-10T09:55:17.077Z,4.70
2023-03-10T09:57:56.541Z,4.65
2023-03-10T10:00:33.091Z,5.25
2023-03-10T10:03:21.623Z,6.47
2023-03-10T10:05:52.341Z,6.25
2023-03-10T10:08:29.102Z,4.95
2023-03-10T10:11:02.925Z,5.57
2023-03-10T10:13:30.534Z,4.78
2023-03-10T10:16:34.265Z,6.45
2023-03-10T10:19:30.987Z,4.05
2023-03-10T10:22:17.504Z,5.88
2023-03-10T10:25:08.851Z,8.88
2023-03-10T10:27:44.051Z,3.17
2023-03-10T10:30:29.213Z,5.35
2023-03-10T10:33:02.085Z,4.22
2023-03-10T10:35:38.324Z,3.70
2023-03-10T10:38:21.215Z,3.17
2023-03-10T10:41:02.658Z,2.40
2023-03-10T10:43:31.313Z,4.35
2023-03-10T10:46:06.064Z,3.75
2023-03-10T10:48:39.464Z,4.68
2023-03-10T10:51:23.432Z,2.67
2023-03-10T10:53:53.965Z,3.47
2023-03-10T10:56:21.786Z,5.30
2023-03-10T10:59:18.011Z,2.95
2023-03-10T11:01:49.887Z,4.40
2023-03-10T11:04:17.821Z,5.63
2023-03-10T11:06:44.942Z,5.95
2023-03-10T11:09:16.801Z,3.35
2023-03-10T11:12:04.640Z,4.85
2023-03-10T11:14:31.925Z,5.55
2023-03-10T11:17:07.659Z,5.50
2023-03-10T11:20:00.663Z,3.75
2023-03-10T11:22:55.002Z,5.07
2023-03-10T11:25:28.895Z,4.13
2023-03-10T11:28:24.263Z,2.60
2023-03-10T11:33:50.415Z,3.95
2023-03-10T11:36:17.777Z,6.72
2023-03-10T11:38:52.576Z,3.92
2023-03-10T11:41:29.278Z,2.97
2023-03-10T11:44:08.591Z,4.18
2023-03-10T11:47:06.356Z,3.30
2023-03-10T11:49:40.821Z,5.68
2023-03-10T11:52:27.971Z,5.45
2023-03-10T11:55:03.622Z,6.18
2023-03-10T11:57:37.006Z,6.38
2023-03-10T12:00:18.332Z,3.45
2023-03-10T12:03:15.045Z,3.30
2023-03-10T12:05:58.478Z,4.00
2023-03-10T12:08:32.216Z,4.68
2023-03-10T12:13:35.974Z,5.57
2023-03-10T12:16:04.011Z,5.97
2023-03-10T12:18:36.246Z,5.97
2023-03-10T12:21:14.340Z,4.47
2023-03-10T12:23:47.388Z,7.07
2023-03-10T12:26:34.660Z,4.20
2023-03-10T12:29:32.515Z,7.10
2023-03-10T12:31:59.932Z,5.47
2023-03-10T12:34:29.701Z,5.93
2023-03-10T12:37:07.942Z,4.35
2023-03-10T12:39:40.722Z,5.57
2023-03-10T12:42:46.440Z,3.17
2023-03-10T12:45:16.722Z,3.05
2023-03-10T12:47:46.674Z,9.02
2023-03-10T12:50:26.258Z,3.88
2023-03-10T12:53:22.591Z,4.85
2023-03-10T12:56:15.342Z,3.60
2023-03-10T12:59:03.259Z,4.53
2023-03-10T13:01:55.535Z,3.30
2023-03-10T13:04:34.585Z,5.13
2023-03-10T13:07:04.623Z,2.25
2023-03-10T13:09:40.496Z,4.80
2023-03-10T13:12:36.808Z,4.80
2023-03-10T13:15:06.910Z,5.15
2023-03-10T13:17:34.337Z,4.50
2023-03-10T13:20:24.971Z,6.35
2023-03-10T13:22:56.574Z,4.45
2023-03-10T13:25:24.561Z,4.53
2023-03-10T13:27:54.620Z,5.85
2023-03-10T13:30:26.916Z,5.55
2023-03-10T13:33:04.620Z,7.32
2023-03-10T13:35:34.191Z,9.93
2023-03-10T13:38:14.956Z,6.80
2023-03-10T13:40:50.267Z,9.15
2023-03-10T13:43:31.567Z,5.82
2023-03-10T13:46:00.350Z,3.05
2023-03-10T13:48:39.288Z,9.52
2023-03-10T13:51:30.728Z,8.23
2023-03-10T13:54:22.506Z,8.93
2023-03-10T13:57:11.676Z,7.95
2023-03-10T13:59:43.634Z,4.65
2023-03-10T14:02:23.752Z,6.45
2023-03-10T14:04:53.769Z,8.75
2023-03-10T14:07:22.051Z,6.30
2023-03-10T14:10:04.864Z,8.10
2023-03-10T14:12:40.815Z,7.82
2023-03-10T14:15:15.057Z,4.97
2023-03-10T14:17:43.908Z,7.57
2023-03-10T14:20:13.143Z,8.07
2023-03-10T14:22:41.540Z,9.73
2023-03-10T14:25:17.415Z,7.45
2023-03-10T14:27:53.785Z,6.55
2023-03-10T14:30:25.532Z,8.43
2023-03-10T14:32:56.132Z,7.22
2023-03-10T14:35:27.075Z,6.40
2023-03-10T14:37:55.037Z,6.68
2023-03-10T14:40:26.125Z,6.95
2023-03-10T14:43:00.302Z,5.70
2023-03-10T14:45:35.228Z,5.88
2023-03-10T14:48:12.177Z,8.32
2023-03-10T14:50:41.852Z,6.90
2023-03-10T14:53:13.872Z,7.03
2023-03-10T14:55:43.455Z,6.22
2023-03-10T14:58:16.781Z,8.73
2023-03-10T15:00:44.483Z,9.02
2023-03-10T15:03:14.122Z,5.90
2023-03-10T15:05:48.700Z,7.70
2023-03-10T15:08:17.770Z,7.75
2023-03-10T15:10:48.807Z,8.85
2023-03-10T15:13:20.925Z,7.50
2023-03-10T15:15:51.630Z,7.18
2023-03-10T15:18:21.874Z,7.90
2023-03-10T15:20:50.050Z,10.93
2023-03-10T15:23:19.234Z,11.25
2023-03-10T15:25:48.020Z,13.07
2023-03-10T15:28:17.797Z,10.25
2023-03-10T15:30:56.707Z,11.30
2023-03-10T15:33:24.536Z,11.30
2023-03-10T15:35:51.674Z,7.07
2023-03-10T15:38:19.234Z,8.70
2023-03-10T15:40:48.693Z,9.98
2023-03-10T15:43:16.175Z,8.35
2023-03-10T15:45:46.066Z,13.45
2023-03-10T15:48:16.372Z,9.57
2023-03-10T15:50:46.445Z,10.00
2023-03-10T15:53:14.491Z,12.07
2023-03-10T15:55:42.449Z,10.65
2023-03-10T15:58:11.101Z,13.48
2023-03-10T16:00:38.577Z,11.82
2023-03-10T16:03:06.048Z,12.98
2023-03-10T16:05:34.494Z,15.88
2023-03-10T16:08:04.527Z,14.18
2023-03-10T16:10:34.139Z,12.27
2023-03-10T16:13:04.567Z,15.55
2023-03-10T16:15:31.816Z,13.73
2023-03-10T16:17:59.272Z,15.65
2023-03-10T16:20:29.008Z,12.43
2023-03-10T16:22:56.564Z,9.43
2023-03-10T16:25:23.761Z,9.50
2023-03-10T16:27:51.130Z,8.10
2023-03-10T16:30:19.136Z,6.93
2023-03-10T16:32:50.426Z,7.88
2023-03-10T16:35:18.474Z,8.25
2023-03-10T16:37:57.252Z,4.57
2023-03-10T16:40:33.800Z,5.05
2023-03-10T16:43:01.289Z,5.10
2023-03-10T16:45:30.881Z,5.20
2023-03-10T16:47:58.269Z,3.53
2023-03-10T16:50:32.601Z,3.60
2023-03-10T16:53:02.379Z,8.10
2023-03-10T16:55:29.577Z,3.28
2023-03-10T16:57:57.101Z,4.15
2023-03-10T17:00:28.768Z,6.03
2023-03-10T17:03:03.253Z,2.85
2023-03-10T17:05:30.551Z,4.20
2023-03-10T17:08:00.442Z,4.40
2023-03-10T17:10:27.529Z,5.50
2023-03-10T17:12:55.070Z,7.43
2023-03-10T17:15:24.777Z,9.65
2023-03-10T17:17:52.147Z,11.80
2023-03-10T17:20:26.307Z,9.88
2023-03-10T17:22:53.794Z,8.00
2023-03-10T17:25:21.177Z,6.63
2023-03-10T17:27:51.110Z,9.63
2023-03-10T17:30:18.688Z,10.05
2023-03-10T17:32:48.671Z,7.80
2023-03-10T17:35:15.815Z,6.03
2023-03-10T17:37:43.284Z,2.83
2023-03-10T17:40:13.741Z,4.05
2023-03-10T17:42:41.951Z,3.05
2023-03-10T17:45:09.711Z,3.55
2023-03-10T17:47:37.161Z,3.25
2023-03-10T17:50:04.534Z,3.25
2023-03-10T17:52:32.044Z,4.80
2023-03-10T17:54:59.145Z,4.40
2023-03-10T17:57:28.750Z,4.43
2023-03-10T17:59:58.073Z,4.18
2023-03-10T18:02:25.514Z,6.55
2023-03-10T18:04:55.225Z,3.83
2023-03-10T18:07:22.573Z,2.60
2023-03-10T18:09:49.628Z,4.55
2023-03-10T18:12:19.532Z,3.75
2023-03-10T18:14:49.048Z,3.90
2023-03-10T18:17:16.509Z,9.18
2023-03-10T18:19:52.664Z,4.90
2023-03-10T18:22:20.075Z,5.97
2023-03-10T18:24:47.234Z,5.72
2023-03-10T18:27:14.681Z,6.07
2023-03-10T18:29:44.956Z,5.95
2023-03-10T18:32:12.543Z,4.10
2023-03-10T18:34:44.371Z,3.75
2023-03-10T18:37:22.242Z,2.53
2023-03-10T18:39:54.327Z,5.15
2023-03-10T18:42:21.710Z,3.63
2023-03-10T18:44:51.866Z,5.68
2023-03-10T18:47:19.976Z,4.10
2023-03-10T18:49:47.879Z,4.38
2023-03-10T18:52:15.652Z,4.68
2023-03-10T18:54:47.203Z,7.38
2023-03-10T18:57:19.246Z,6.00
2023-03-10T18:59:46.404Z,8.90
2023-03-10T19:02:16.392Z,6.00
2023-03-10T19:04:43.978Z,5.63
2023-03-10T19:07:11.519Z,4.57
2023-03-10T19:09:38.552Z,6.63
2023-03-10T19:12:06.850Z,6.13
2023-03-10T19:14:45.060Z,5.40
2023-03-10T19:17:22.801Z,5.47
2023-03-10T19:20:00.471Z,4.35
2023-03-10T19:22:28.308Z,5.88
2023-03-10T19:24:56.411Z,4.05
2023-03-10T19:27:31.597Z,4.25
2023-03-10T19:30:01.188Z,3.80
2023-03-10T19:32:30.841Z,4.55
2023-03-10T19:35:00.339Z,3.03
2023-03-10T19:37:28.630Z,4.15
2023-03-10T19:39:55.689Z,3.20
2023-03-10T19:42:25.416Z,5.57
2023-03-10T19:44:55.104Z,6.40
2023-03-10T19:47:22.461Z,6.38
2023-03-10T19:49:53.750Z,8.48
2023-03-10T19:52:24.260Z,9.05
2023-03-10T19:54:51.861Z,8.75
2023-03-10T19:57:19.473Z,6.20
2023-03-10T19:59:49.193Z,8.57
2023-03-10T20:02:19.389Z,11.30
2023-03-10T20:04:46.672Z,7.07
2023-03-10T20:07:16.584Z,6.75
2023-03-10T20:09:45.715Z,7.93
2023-03-10T20:12:18.799Z,8.23
2023-03-10T20:14:55.705Z,5.88
2023-03-10T20:17:23.023Z,8.60
2023-03-10T20:19:55.724Z,7.22
2023-03-10T20:22:36.029Z,7.45
2023-03-10T20:25:03.203Z,7.55
2023-03-10T20:27:30.598Z,7.57
2023-03-10T20:29:59.882Z,9.65
2023-03-10T20:32:27.340Z,7.70
2023-03-10T20:34:54.449Z,7.47
2023-03-10T20:37:24.190Z,7.53
2023-03-10T20:39:53.715Z,7.00
2023-03-10T20:42:23.527Z,6.57
2023-03-10T20:44:52.754Z,6.38
2023-03-10T20:47:20.132Z,6.80
2023-03-10T20:49:49.389Z,5.15
2023-03-10T20:52:16.732Z,5.85
2023-03-10T20:54:43.772Z,5.65
2023-03-10T20:57:13.701Z,5.32
2023-03-10T20:59:45.860Z,4.93
2023-03-10T21:02:17.585Z,5.35
2023-03-10T21:04:47.552Z,3.42
2023-03-10T21:10:09.225Z,5.57
2023-03-10T21:12:36.579Z,3.55
2023-03-10T21:15:07.029Z,4.03
2023-03-10T21:17:36.406Z,3.28
2023-03-10T21:20:05.346Z,3.65
2023-03-10T21:22:38.446Z,2.38
2023-03-10T21:25:11.854Z,2.55
2023-03-10T21:27:46.669Z,2.30
2023-03-10T21:30:14.359Z,3.45
2023-03-10T21:32:41.728Z,2.05
2023-03-10T21:35:09.577Z,3.58
2023-03-10T21:37:39.141Z,5.20
2023-03-10T21:40:15.204Z,3.43
2023-03-10T21:42:47.311Z,2.13
2023-03-10T21:45:20.124Z,2.90
2023-03-10T21:47:48.731Z,2.88
2023-03-10T21:50:17.597Z,3.28
2023-03-10T21:52:51.072Z,2.80
2023-03-10T21:55:23.439Z,4.07
2023-03-10T21:57:51.920Z,2.00
2023-03-10T22:00:20.616Z,3.50
2023-03-10T22:02:50.817Z,2.22
2023-03-10T22:05:21.020Z,2.33
2023-03-10T22:07:48.984Z,3.75
2023-03-10T22:10:16.772Z,3.15
2023-03-10T22:12:44.208Z,3.45
2023-03-10T22:15:16.057Z,2.28
2023-03-10T22:17:46.037Z,2.83
2023-03-10T22:20:17.121Z,2.83
2023-03-10T22:22:44.953Z,3.78
2023-03-10T22:25:12.254Z,2.35
2023-03-10T22:27:39.618Z,3.33
2023-03-10T22:30:10.338Z,1.77
2023-03-10T22:32:37.728Z,2.15
2023-03-10T22:35:05.203Z,4.55
2023-03-10T22:37:32.631Z,2.15
2023-03-10T22:39:59.799Z,1.77
2023-03-10T22:42:27.192Z,3.05
2023-03-10T22:44:56.494Z,3.47
2023-03-10T22:47:23.884Z,2.78
2023-03-10T22:49:51.804Z,2.00
2023-03-10T22:52:19.177Z,4.05
2023-03-10T22:54:48.737Z,2.05
2023-03-10T22:57:16.139Z,2.05
2023-03-10T22:59:43.152Z,2.72
2023-03-10T23:02:12.809Z,4.05
2023-03-10T23:04:40.003Z,3.40
2023-03-10T23:07:07.366Z,2.55
2023-03-10T23:09:34.398Z,4.28
2023-03-10T23:12:01.910Z,3.20
2023-03-10T23:14:31.500Z,2.50
2023-03-10T23:16:58.853Z,2.95
2023-03-10T23:19:25.928Z,3.67
2023-03-10T23:21:53.291Z,3.50
2023-03-10T23:24:22.831Z,2.17
2023-03-10T23:26:50.428Z,3.80
2023-03-10T23:29:17.462Z,2.40
2023-03-10T23:31:44.849Z,3.90
2023-03-10T23:34:11.992Z,2.10
2023-03-10T23:36:41.525Z,1.98
2023-03-10T23:39:08.553Z,2.78
2023-03-10T23:41:38.328Z,1.63
2023-03-10T23:44:05.528Z,3.17
2023-03-10T23:46:32.926Z,1.77
2023-03-10T23:49:00.051Z,1.95
2023-03-10T23:51:27.712Z,2.92
2023-03-10T23:53:56.991Z,4.90
2023-03-10T23:56:24.376Z,3.53
2023-03-10T23:58:51.525Z,1.50
